Time;durP1;ratioP1;P1;durP2;ratioP2;P2;SDS_P1;SDS_P2;PMS_P1;PMS_P2;Temp;Humidity;BMP_temperature;BMP_pressure;BME280_temperature;BME280_humidity;BME280_pressure;Samples;Min_cycle;Max_cycle;Signal;HPM_P1;HPM_P2
2023/12/23 00:02:04;;;;;;;21.38;10.13;;;;;;;;;;5011709;28;20028;-71
2023/12/23 00:04:30;;;;;;;15.63;10.48;;;;;;;;;;5022329;28;20434;-70
2023/12/23 00:06:55;;;;;;;19.95;10.88;;;;;;;;;;5012540;28;20076;-71
2023/12/23 00:09:21;;;;;;;17.60;10.68;;;;;;;;;;5013885;28;20045;-70
2023/12/23 00:11:47;;;;;;;17.85;9.70;;;;;;;;;;5016344;28;20048;-70
2023/12/23 00:14:13;;;;;;;17.75;10.27;;;;;;;;;;5011922;28;20049;-69
2023/12/23 00:16:38;;;;;;;25.00;14.70;;;;;;;;;;5021040;28;20079;-70
2023/12/23 00:19:05;;;;;;;23.77;12.70;;;;;;;;;;5011211;28;20129;-69
2023/12/23 00:21:31;;;;;;;22.27;11.55;;;;;;;;;;5014909;28;20021;-70
2023/12/23 00:23:56;;;;;;;24.52;13.52;;;;;;;;;;5005534;28;20042;-71
2023/12/23 00:26:22;;;;;;;22.88;10.50;;;;;;;;;;5008693;28;20069;-70
2023/12/23 00:28:48;;;;;;;13.60;6.82;;;;;;;;;;5009084;28;20030;-70
2023/12/23 00:31:14;;;;;;;15.15;7.63;;;;;;;;;;5008193;28;20030;-69
2023/12/23 00:33:42;;;;;;;10.65;5.55;;;;;;;;;;5006303;28;20459;-70
2023/12/23 00:36:07;;;;;;;11.07;6.05;;;;;;;;;;5008936;28;20029;-70
2023/12/23 00:38:33;;;;;;;10.77;5.43;;;;;;;;;;5008081;28;20558;-70
2023/12/23 00:40:59;;;;;;;9.45;5.15;;;;;;;;;;5008636;28;20120;-70
2023/12/23 00:43:25;;;;;;;13.80;5.57;;;;;;;;;;5007980;28;20030;-70
2023/12/23 00:45:51;;;;;;;8.18;4.20;;;;;;;;;;5006963;28;20507;-69
2023/12/23 00:48:17;;;;;;;8.05;3.58;;;;;;;;;;5007039;28;20045;-69
2023/12/23 00:50:43;;;;;;;6.28;3.38;;;;;;;;;;5008667;28;20022;-70
2023/12/23 00:53:08;;;;;;;5.97;3.63;;;;;;;;;;5005895;28;20040;-71
2023/12/23 00:55:34;;;;;;;8.48;4.00;;;;;;;;;;5005891;28;20041;-70
2023/12/23 00:58:00;;;;;;;7.63;3.28;;;;;;;;;;4994963;28;20053;-70
2023/12/23 01:00:25;;;;;;;5.95;3.63;;;;;;;;;;5012691;28;20476;-70
2023/12/23 01:02:51;;;;;;;5.07;3.40;;;;;;;;;;5012745;28;20041;-71
2023/12/23 01:05:17;;;;;;;7.35;3.58;;;;;;;;;;5012865;28;20057;-70
2023/12/23 01:07:43;;;;;;;7.72;3.58;;;;;;;;;;5012825;28;20037;-70
2023/12/23 01:10:09;;;;;;;7.47;3.55;;;;;;;;;;5012726;28;20076;-70
2023/12/23 01:12:34;;;;;;;5.10;3.17;;;;;;;;;;5012637;28;20029;-70
2023/12/23 01:15:00;;;;;;;6.32;3.28;;;;;;;;;;5012400;28;20041;-70
2023/12/23 01:17:26;;;;;;;8.32;4.80;;;;;;;;;;5012117;28;20038;-70
2023/12/23 01:19:51;;;;;;;6.90;3.67;;;;;;;;;;5012466;28;20025;-70
2023/12/23 01:22:17;;;;;;;6.03;3.88;;;;;;;;;;4995957;28;20034;-70
2023/12/23 01:24:44;;;;;;;6.25;3.67;;;;;;;;;;4993215;28;20256;-70
2023/12/23 01:27:11;;;;;;;7.65;3.95;;;;;;;;;;4994388;28;20476;-70
2023/12/23 01:29:37;;;;;;;6.13;3.47;;;;;;;;;;4992981;28;20039;-70
2023/12/23 01:32:03;;;;;;;5.68;3.70;;;;;;;;;;5007501;28;20053;-70
2023/12/23 01:34:29;;;;;;;7.60;3.97;;;;;;;;;;5012129;28;20101;-70
2023/12/23 01:36:55;;;;;;;8.88;4.15;;;;;;;;;;5012063;28;20149;-70
2023/12/23 01:39:21;;;;;;;10.60;4.57;;;;;;;;;;5009279;28;20061;-71
2023/12/23 01:41:46;;;;;;;6.82;4.03;;;;;;;;;;5028494;28;20112;-71
2023/12/23 01:44:12;;;;;;;6.45;3.65;;;;;;;;;;5013015;28;20073;-70
2023/12/23 01:46:38;;;;;;;7.47;4.32;;;;;;;;;;5012063;28;20041;-70
2023/12/23 01:49:04;;;;;;;5.75;3.78;;;;;;;;;;5012084;28;20037;-70
2023/12/23 01:51:31;;;;;;;5.95;3.78;;;;;;;;;;5012234;28;20057;-70
2023/12/23 01:54:03;;;;;;;8.02;3.60;;;;;;;;;;5011290;28;20034;-70
2023/12/23 01:56:29;;;;;;;8.88;4.25;;;;;;;;;;5011508;28;20076;-70
2023/12/23 01:58:56;;;;;;;6.78;3.85;;;;;;;;;;5012262;28;20111;-70
2023/12/23 02:01:21;;;;;;;6.75;3.33;;;;;;;;;;5011612;28;20072;-70
2023/12/23 02:03:47;;;;;;;5.85;3.28;;;;;;;;;;5011889;28;20057;-70
2023/12/23 02:06:14;;;;;;;5.05;3.20;;;;;;;;;;5011535;28;20025;-70
2023/12/23 02:08:39;;;;;;;6.10;3.63;;;;;;;;;;5011900;28;20041;-70
2023/12/23 02:11:06;;;;;;;5.22;3.30;;;;;;;;;;5012837;28;20387;-70
2023/12/23 02:13:51;;;;;;;5.63;3.67;;;;;;;;;;5012603;28;20129;-70
2023/12/23 02:16:17;;;;;;;7.55;3.75;;;;;;;;;;5000482;28;20061;-70
2023/12/23 02:18:45;;;;;;;11.10;3.95;;;;;;;;;;5011624;28;20034;-69
2023/12/23 02:21:10;;;;;;;7.30;3.35;;;;;;;;;;5007529;28;20042;-70
2023/12/23 02:23:36;;;;;;;8.52;4.90;;;;;;;;;;5010072;28;20018;-70
2023/12/23 02:26:04;;;;;;;10.07;4.82;;;;;;;;;;5011114;28;20237;-70
2023/12/23 02:28:32;;;;;;;8.68;4.30;;;;;;;;;;5012335;28;20121;-70
2023/12/23 02:30:57;;;;;;;7.90;4.38;;;;;;;;;;5012364;28;20034;-70
2023/12/23 02:33:23;;;;;;;10.15;4.47;;;;;;;;;;5027527;28;20040;-70
2023/12/23 02:35:52;;;;;;;10.38;4.70;;;;;;;;;;5012286;28;20033;-69
2023/12/23 02:38:22;;;;;;;7.63;4.60;;;;;;;;;;5012513;28;20033;-69
2023/12/23 02:40:48;;;;;;;7.50;4.25;;;;;;;;;;5011130;28;20077;-70
2023/12/23 02:43:14;;;;;;;7.30;4.15;;;;;;;;;;5011016;28;20030;-70
2023/12/23 02:45:40;;;;;;;6.85;3.70;;;;;;;;;;5012439;28;20480;-70
2023/12/23 02:48:06;;;;;;;5.45;3.28;;;;;;;;;;5012010;28;20048;-70
2023/12/23 02:50:32;;;;;;;5.95;3.28;;;;;;;;;;5010457;28;20026;-70
2023/12/23 02:52:59;;;;;;;5.13;3.00;;;;;;;;;;5027565;28;20115;-70
2023/12/23 02:55:25;;;;;;;5.40;3.38;;;;;;;;;;4991058;28;20121;-69
2023/12/23 02:57:51;;;;;;;8.20;3.17;;;;;;;;;;4990075;28;20117;-70
2023/12/23 03:00:17;;;;;;;7.55;4.30;;;;;;;;;;4992193;28;20117;-69
2023/12/23 03:02:42;;;;;;;6.90;3.45;;;;;;;;;;5013509;28;20057;-70
2023/12/23 03:05:08;;;;;;;6.38;3.92;;;;;;;;;;5005184;28;20038;-69
2023/12/23 03:07:34;;;;;;;7.68;3.40;;;;;;;;;;4994933;28;20530;-69
2023/12/23 03:10:00;;;;;;;7.05;3.45;;;;;;;;;;5000201;28;20030;-69
2023/12/23 03:12:26;;;;;;;7.25;4.82;;;;;;;;;;5001364;28;20034;-69
2023/12/23 03:14:51;;;;;;;9.32;4.38;;;;;;;;;;5000593;28;20084;-69
2023/12/23 03:17:17;;;;;;;8.57;4.03;;;;;;;;;;4997924;28;20030;-70
2023/12/23 03:19:43;;;;;;;6.35;3.65;;;;;;;;;;4992478;28;20042;-69
2023/12/23 03:22:08;;;;;;;6.00;3.63;;;;;;;;;;5007012;28;20018;-71
2023/12/23 03:24:35;;;;;;;6.38;3.95;;;;;;;;;;4991915;28;20049;-70
2023/12/23 03:27:01;;;;;;;12.05;5.32;;;;;;;;;;4990991;28;20495;-70
2023/12/23 03:29:26;;;;;;;7.15;3.85;;;;;;;;;;4991605;28;20019;-70
2023/12/23 03:31:52;;;;;;;8.07;4.32;;;;;;;;;;4991322;28;20034;-69
2023/12/23 03:34:18;;;;;;;8.18;4.57;;;;;;;;;;5006311;28;20126;-70
2023/12/23 03:36:43;;;;;;;9.30;4.47;;;;;;;;;;4991672;28;20468;-70
2023/12/23 03:39:09;;;;;;;9.38;5.30;;;;;;;;;;5006841;28;20045;-70
2023/12/23 03:41:35;;;;;;;9.80;4.40;;;;;;;;;;4991281;28;20042;-69
2023/12/23 03:44:01;;;;;;;5.88;3.78;;;;;;;;;;4990738;28;20030;-70
2023/12/23 03:46:27;;;;;;;4.97;3.40;;;;;;;;;;4990885;28;20034;-69
2023/12/23 03:48:53;;;;;;;5.93;3.03;;;;;;;;;;5007315;28;20143;-69
2023/12/23 03:51:18;;;;;;;5.93;3.47;;;;;;;;;;4992313;28;20357;-71
2023/12/23 03:53:44;;;;;;;8.27;3.70;;;;;;;;;;4990592;28;20048;-70
2023/12/23 03:56:10;;;;;;;9.70;3.85;;;;;;;;;;4992127;28;20042;-70
2023/12/23 03:58:35;;;;;;;10.02;4.57;;;;;;;;;;5007520;28;20057;-69
2023/12/23 04:01:02;;;;;;;7.57;3.55;;;;;;;;;;4994346;28;20038;-70
2023/12/23 04:03:29;;;;;;;9.18;3.83;;;;;;;;;;4995700;28;20044;-70
2023/12/23 04:05:54;;;;;;;7.90;3.65;;;;;;;;;;4994599;28;20037;-69
2023/12/23 04:08:20;;;;;;;7.72;4.57;;;;;;;;;;5010667;28;20464;-70
2023/12/23 04:10:46;;;;;;;9.15;4.30;;;;;;;;;;4994384;28;20077;-70
2023/12/23 04:13:11;;;;;;;7.50;3.80;;;;;;;;;;4993990;28;20080;-70
2023/12/23 04:15:37;;;;;;;5.90;3.42;;;;;;;;;;4994447;28;20408;-70
2023/12/23 04:18:04;;;;;;;7.22;3.88;;;;;;;;;;4994310;28;20034;-70
2023/12/23 04:20:29;;;;;;;6.65;3.95;;;;;;;;;;4994034;28;20088;-70
2023/12/23 04:22:55;;;;;;;8.68;3.92;;;;;;;;;;4993917;28;20117;-70
2023/12/23 04:25:21;;;;;;;8.93;4.07;;;;;;;;;;5010178;28;20046;-70
2023/12/23 04:27:48;;;;;;;12.32;5.03;;;;;;;;;;5010537;28;20033;-70
2023/12/23 04:30:14;;;;;;;9.90;5.40;;;;;;;;;;4993654;28;20030;-69
2023/12/23 04:32:39;;;;;;;12.50;5.00;;;;;;;;;;4993851;28;20034;-71
2023/12/23 04:35:05;;;;;;;13.15;5.22;;;;;;;;;;4993636;28;20022;-70
2023/12/23 04:37:31;;;;;;;10.30;4.65;;;;;;;;;;5010131;28;20038;-70
2023/12/23 04:39:57;;;;;;;12.98;5.20;;;;;;;;;;5010056;28;20030;-70
2023/12/23 04:42:23;;;;;;;14.20;6.20;;;;;;;;;;5009978;28;20109;-70
2023/12/23 04:44:48;;;;;;;14.80;6.72;;;;;;;;;;4994687;28;20041;-70
2023/12/23 04:47:14;;;;;;;18.83;6.72;;;;;;;;;;5009955;28;20089;-70
2023/12/23 04:49:40;;;;;;;30.38;13.35;;;;;;;;;;5010007;28;20064;-71
2023/12/23 04:52:06;;;;;;;17.58;7.55;;;;;;;;;;4993473;28;20026;-70
2023/12/23 04:54:32;;;;;;;40.15;13.38;;;;;;;;;;5009790;28;20120;-70
2023/12/23 04:56:58;;;;;;;23.33;8.80;;;;;;;;;;4993476;28;20030;-70
2023/12/23 04:59:23;;;;;;;9.60;5.55;;;;;;;;;;4993426;28;20052;-71
2023/12/23 05:01:50;;;;;;;18.30;7.95;;;;;;;;;;4976937;28;20038;-70
2023/12/23 05:04:15;;;;;;;26.92;10.80;;;;;;;;;;4996380;28;20022;-70
2023/12/23 05:06:41;;;;;;;9.73;5.63;;;;;;;;;;5012756;28;20034;-69
2023/12/23 05:09:07;;;;;;;10.02;5.50;;;;;;;;;;5013103;28;20079;-70
2023/12/23 05:11:32;;;;;;;9.57;4.72;;;;;;;;;;5012505;28;20032;-70
2023/12/23 05:13:58;;;;;;;15.55;5.97;;;;;;;;;;5012495;28;20072;-69
2023/12/23 05:16:25;;;;;;;12.38;6.38;;;;;;;;;;5014858;28;20043;-71
2023/12/23 05:18:50;;;;;;;15.82;5.93;;;;;;;;;;5015591;28;20022;-70
2023/12/23 05:21:16;;;;;;;16.33;6.18;;;;;;;;;;5010737;28;20395;-70
2023/12/23 05:23:42;;;;;;;12.05;5.90;;;;;;;;;;4994582;28;20042;-70
2023/12/23 05:26:08;;;;;;;18.35;8.10;;;;;;;;;;4992729;28;20038;-70
2023/12/23 05:28:34;;;;;;;19.52;7.00;;;;;;;;;;4992893;28;20022;-70
2023/12/23 05:31:00;;;;;;;25.40;8.13;;;;;;;;;;4993998;28;20038;-71
2023/12/23 05:33:26;;;;;;;21.85;7.00;;;;;;;;;;4993790;28;20038;-70
2023/12/23 05:35:52;;;;;;;13.60;6.70;;;;;;;;;;5008890;28;20018;-70
2023/12/23 05:38:17;;;;;;;21.42;8.15;;;;;;;;;;4994211;28;20436;-70
2023/12/23 05:40:43;;;;;;;19.63;7.70;;;;;;;;;;4993742;28;20431;-70
2023/12/23 05:43:09;;;;;;;19.92;7.63;;;;;;;;;;4993632;28;20026;-71
2023/12/23 05:45:34;;;;;;;15.20;6.97;;;;;;;;;;4989803;28;20096;-70
2023/12/23 05:48:00;;;;;;;11.63;6.53;;;;;;;;;;4993447;28;20101;-70
2023/12/23 05:50:26;;;;;;;11.32;7.03;;;;;;;;;;4993389;28;20050;-70
2023/12/23 05:52:52;;;;;;;16.42;6.82;;;;;;;;;;4993119;28;20069;-70
2023/12/23 05:55:19;;;;;;;15.90;7.63;;;;;;;;;;5008433;28;20038;-70
2023/12/23 05:57:44;;;;;;;13.73;7.80;;;;;;;;;;4998248;28;20061;-70
2023/12/23 06:00:11;;;;;;;15.40;6.78;;;;;;;;;;4993116;28;20077;-70
2023/12/23 06:02:39;;;;;;;14.35;7.45;;;;;;;;;;4993243;28;20058;-71
2023/12/23 06:05:05;;;;;;;15.77;8.07;;;;;;;;;;4991941;28;20440;-73
2023/12/23 06:07:31;;;;;;;17.92;8.02;;;;;;;;;;4992307;28;20133;-70
2023/12/23 06:09:57;;;;;;;17.63;8.52;;;;;;;;;;4992876;28;20049;-70
2023/12/23 06:12:23;;;;;;;21.70;7.88;;;;;;;;;;4993023;28;20027;-71
2023/12/23 06:14:50;;;;;;;16.92;8.32;;;;;;;;;;4991586;28;20420;-72
2023/12/23 06:17:16;;;;;;;30.92;9.82;;;;;;;;;;4992111;28;20034;-72
2023/12/23 06:19:42;;;;;;;19.33;9.02;;;;;;;;;;4990822;28;20033;-72
2023/12/23 06:22:07;;;;;;;25.98;10.55;;;;;;;;;;4991617;28;20034;-72
2023/12/23 06:24:33;;;;;;;24.73;10.70;;;;;;;;;;4992340;28;20499;-73
2023/12/23 06:26:59;;;;;;;32.85;11.70;;;;;;;;;;4991619;28;20376;-71
2023/12/23 06:29:24;;;;;;;16.50;8.75;;;;;;;;;;5007112;28;20038;-73
2023/12/23 06:31:50;;;;;;;19.63;9.82;;;;;;;;;;4990776;28;20026;-72
2023/12/23 06:34:16;;;;;;;22.35;10.15;;;;;;;;;;4991551;28;20027;-71
2023/12/23 06:36:41;;;;;;;21.23;9.65;;;;;;;;;;4992110;28;20069;-73
2023/12/23 06:39:07;;;;;;;16.95;8.73;;;;;;;;;;4991486;28;20049;-72
2023/12/23 06:41:33;;;;;;;27.92;14.48;;;;;;;;;;5007110;28;20065;-73
2023/12/23 06:43:58;;;;;;;28.63;14.63;;;;;;;;;;4991679;28;20042;-72
2023/12/23 06:46:24;;;;;;;19.77;11.60;;;;;;;;;;4991707;28;20113;-73
2023/12/23 06:48:51;;;;;;;19.95;10.60;;;;;;;;;;4991644;28;20030;-71
2023/12/23 06:51:17;;;;;;;15.13;8.23;;;;;;;;;;5007006;28;20033;-73
2023/12/23 06:53:42;;;;;;;29.05;10.27;;;;;;;;;;4999487;28;20500;-73
2023/12/23 06:56:08;;;;;;;18.90;7.10;;;;;;;;;;4991569;28;20068;-72
2023/12/23 06:58:34;;;;;;;15.90;7.60;;;;;;;;;;5000288;28;20108;-73
2023/12/23 07:01:00;;;;;;;11.88;7.22;;;;;;;;;;4993192;28;20133;-71
2023/12/23 07:03:26;;;;;;;13.75;6.70;;;;;;;;;;4991829;28;20063;-72
2023/12/23 07:05:52;;;;;;;17.67;8.75;;;;;;;;;;4991445;28;20061;-72
2023/12/23 07:08:18;;;;;;;18.73;8.50;;;;;;;;;;4991513;28;20476;-73
2023/12/23 07:10:44;;;;;;;16.33;7.28;;;;;;;;;;4991223;28;20081;-72
2023/12/23 07:13:10;;;;;;;13.90;6.80;;;;;;;;;;4999176;28;20030;-70
2023/12/23 07:15:35;;;;;;;11.80;7.18;;;;;;;;;;5004447;28;20052;-71
2023/12/23 07:18:01;;;;;;;9.73;5.97;;;;;;;;;;5001325;28;20026;-72
2023/12/23 07:20:27;;;;;;;9.80;6.45;;;;;;;;;;5006632;28;20042;-71
2023/12/23 07:22:53;;;;;;;7.90;4.57;;;;;;;;;;5014883;28;20084;-71
2023/12/23 07:25:19;;;;;;;13.25;5.07;;;;;;;;;;5009559;28;20049;-71
2023/12/23 07:27:44;;;;;;;12.63;7.18;;;;;;;;;;5003734;28;20061;-71
2023/12/23 07:30:11;;;;;;;16.35;9.30;;;;;;;;;;4991282;28;20034;-73
2023/12/23 07:32:36;;;;;;;23.27;10.70;;;;;;;;;;4997568;28;20073;-72
2023/12/23 07:35:02;;;;;;;22.00;11.52;;;;;;;;;;5002282;28;20473;-71
2023/12/23 07:37:28;;;;;;;17.52;11.18;;;;;;;;;;4995454;28;20026;-74
2023/12/23 07:39:54;;;;;;;21.23;10.98;;;;;;;;;;5018729;28;20065;-73
2023/12/23 07:42:20;;;;;;;21.40;11.25;;;;;;;;;;5014883;28;20025;-72
2023/12/23 07:44:46;;;;;;;18.40;10.77;;;;;;;;;;5014291;28;20479;-73
2023/12/23 07:47:12;;;;;;;24.05;11.80;;;;;;;;;;5029649;28;20088;-72
2023/12/23 07:49:38;;;;;;;19.48;11.25;;;;;;;;;;5014627;28;20033;-72
2023/12/23 07:52:04;;;;;;;18.52;11.55;;;;;;;;;;5006370;28;20062;-73
2023/12/23 07:54:30;;;;;;;22.05;11.48;;;;;;;;;;5011845;28;20037;-72
2023/12/23 07:56:55;;;;;;;18.52;10.80;;;;;;;;;;4994304;28;20026;-73
2023/12/23 07:59:21;;;;;;;18.92;10.68;;;;;;;;;;5012599;28;20061;-74
2023/12/23 08:01:47;;;;;;;15.10;9.40;;;;;;;;;;4996906;28;20141;-74
2023/12/23 08:04:14;;;;;;;17.15;10.07;;;;;;;;;;4997026;28;20026;-73
2023/12/23 08:06:40;;;;;;;18.08;10.50;;;;;;;;;;5014027;28;20046;-73
2023/12/23 08:09:06;;;;;;;19.73;9.80;;;;;;;;;;5011444;28;20088;-72
2023/12/23 08:11:32;;;;;;;18.20;10.27;;;;;;;;;;4999217;28;20152;-73
2023/12/23 08:13:57;;;;;;;14.27;8.82;;;;;;;;;;5013557;28;20041;-73
2023/12/23 08:16:23;;;;;;;15.85;9.60;;;;;;;;;;5013803;28;20055;-73
2023/12/23 08:18:49;;;;;;;18.50;11.35;;;;;;;;;;5006437;28;20045;-73
2023/12/23 08:21:15;;;;;;;15.13;9.50;;;;;;;;;;4996712;28;20201;-73
2023/12/23 08:23:40;;;;;;;16.02;9.15;;;;;;;;;;5007507;28;20519;-74
2023/12/23 08:26:08;;;;;;;14.10;6.55;;;;;;;;;;4999512;28;20468;-74
2023/12/23 08:28:34;;;;;;;13.57;7.32;;;;;;;;;;5005564;28;20041;-74
2023/12/23 08:31:02;;;;;;;19.35;7.63;;;;;;;;;;4997586;28;20045;-75
2023/12/23 08:33:27;;;;;;;16.42;7.35;;;;;;;;;;5000469;28;20026;-76
2023/12/23 08:35:53;;;;;;;12.10;7.18;;;;;;;;;;5009476;28;20060;-74
2023/12/23 08:38:20;;;;;;;11.73;6.47;;;;;;;;;;5000664;28;20386;-74
2023/12/23 08:40:45;;;;;;;8.73;5.28;;;;;;;;;;5009029;28;20056;-74
2023/12/23 08:43:12;;;;;;;9.13;5.15;;;;;;;;;;5012592;28;20357;-74
2023/12/23 08:45:38;;;;;;;9.13;5.80;;;;;;;;;;5012418;28;20310;-75
2023/12/23 08:48:05;;;;;;;7.55;4.65;;;;;;;;;;4987015;28;20037;-74
2023/12/23 08:50:32;;;;;;;9.75;5.20;;;;;;;;;;4993571;28;20027;-74
2023/12/23 08:52:58;;;;;;;10.85;5.25;;;;;;;;;;4992030;28;20076;-73
2023/12/23 08:55:24;;;;;;;10.40;6.10;;;;;;;;;;5013054;28;20053;-73
2023/12/23 08:57:49;;;;;;;11.00;5.07;;;;;;;;;;5011863;28;20038;-74
2023/12/23 09:00:16;;;;;;;9.35;4.60;;;;;;;;;;5012810;28;20519;-74
2023/12/23 09:02:42;;;;;;;11.48;5.50;;;;;;;;;;5011970;28;20032;-73
2023/12/23 09:05:08;;;;;;;9.77;4.97;;;;;;;;;;5003196;28;20104;-72
2023/12/23 09:07:34;;;;;;;15.30;5.80;;;;;;;;;;4993264;28;20584;-71
2023/12/23 09:09:59;;;;;;;10.55;5.57;;;;;;;;;;4992271;28;20035;-72
2023/12/23 09:12:25;;;;;;;12.05;6.03;;;;;;;;;;4992918;28;20113;-70
2023/12/23 09:14:51;;;;;;;9.30;5.32;;;;;;;;;;5023450;28;20033;-72
2023/12/23 09:17:17;;;;;;;8.15;5.07;;;;;;;;;;5012393;28;20033;-72
2023/12/23 09:19:42;;;;;;;9.10;5.80;;;;;;;;;;5004426;28;20209;-72
2023/12/23 09:22:08;;;;;;;8.77;4.63;;;;;;;;;;5003272;28;20037;-71
2023/12/23 09:24:34;;;;;;;11.55;4.47;;;;;;;;;;4992747;28;20022;-73
2023/12/23 09:27:00;;;;;;;7.55;5.00;;;;;;;;;;4992981;28;20076;-71
2023/12/23 09:29:26;;;;;;;12.77;5.72;;;;;;;;;;4990979;28;20091;-72
2023/12/23 09:31:52;;;;;;;14.70;5.60;;;;;;;;;;4991792;28;20018;-72
2023/12/23 09:34:20;;;;;;;10.43;5.47;;;;;;;;;;5002018;28;20041;-71
2023/12/23 09:36:46;;;;;;;7.97;4.70;;;;;;;;;;5027216;28;20492;-72
2023/12/23 09:39:12;;;;;;;8.90;4.70;;;;;;;;;;5012153;28;20076;-72
2023/12/23 09:41:40;;;;;;;7.65;4.93;;;;;;;;;;5011800;28;20030;-71
2023/12/23 09:44:06;;;;;;;8.60;5.72;;;;;;;;;;5010947;28;20048;-73
2023/12/23 09:46:32;;;;;;;13.35;5.10;;;;;;;;;;5012531;28;20022;-72
2023/12/23 09:48:57;;;;;;;9.10;4.40;;;;;;;;;;5004675;28;20035;-72
2023/12/23 09:51:26;;;;;;;9.20;4.32;;;;;;;;;;5000447;28;20452;-70
2023/12/23 09:53:56;;;;;;;9.93;5.22;;;;;;;;;;4992698;28;20042;-70
2023/12/23 09:56:27;;;;;;;7.22;3.90;;;;;;;;;;4992513;28;20526;-72
2023/12/23 09:58:53;;;;;;;9.43;4.15;;;;;;;;;;4993400;28;20042;-70
2023/12/23 10:01:19;;;;;;;11.30;4.97;;;;;;;;;;4993361;28;20057;-71
2023/12/23 10:03:46;;;;;;;8.43;4.63;;;;;;;;;;4992970;28;20045;-69
2023/12/23 10:06:15;;;;;;;11.57;5.40;;;;;;;;;;4993112;28;20026;-71
2023/12/23 10:08:44;;;;;;;7.82;4.68;;;;;;;;;;4991617;28;20058;-71
2023/12/23 10:11:10;;;;;;;7.78;4.80;;;;;;;;;;4993355;28;20042;-70
2023/12/23 10:13:36;;;;;;;7.68;4.70;;;;;;;;;;4992849;28;20081;-71
2023/12/23 10:16:03;;;;;;;8.63;5.05;;;;;;;;;;4991931;28;20045;-72
2023/12/23 10:18:30;;;;;;;10.68;4.80;;;;;;;;;;4991382;28;20038;-71
2023/12/23 10:20:57;;;;;;;9.38;6.40;;;;;;;;;;4992742;28;20081;-72
2023/12/23 10:23:22;;;;;;;9.68;5.53;;;;;;;;;;4992487;28;20023;-71
2023/12/23 10:25:48;;;;;;;9.07;5.65;;;;;;;;;;4993114;28;20112;-72
2023/12/23 10:28:17;;;;;;;13.20;6.20;;;;;;;;;;4992367;28;20033;-71
2023/12/23 10:30:50;;;;;;;10.05;5.88;;;;;;;;;;4992776;28;20488;-71
2023/12/23 10:33:17;;;;;;;8.65;5.80;;;;;;;;;;4992603;28;20050;-70
2023/12/23 10:35:50;;;;;;;10.38;6.00;;;;;;;;;;4992487;28;20030;-72
2023/12/23 10:38:18;;;;;;;9.88;5.47;;;;;;;;;;4993018;28;20120;-70
2023/12/23 10:40:49;;;;;;;14.73;6.78;;;;;;;;;;4992905;28;20038;-70
2023/12/23 10:43:15;;;;;;;9.70;5.78;;;;;;;;;;4989857;28;20038;-70
2023/12/23 10:45:44;;;;;;;9.48;6.55;;;;;;;;;;4992555;28;20101;-71
2023/12/23 10:48:10;;;;;;;14.90;5.90;;;;;;;;;;4991849;28;20095;-71
2023/12/23 10:50:36;;;;;;;16.17;7.28;;;;;;;;;;4992190;28;20034;-71
2023/12/23 10:53:02;;;;;;;13.73;6.72;;;;;;;;;;4987642;28;20502;-71
2023/12/23 10:55:29;;;;;;;10.20;6.20;;;;;;;;;;4991952;28;20109;-71
2023/12/23 10:57:55;;;;;;;13.30;6.07;;;;;;;;;;4991250;28;20038;-71
2023/12/23 11:00:21;;;;;;;13.48;6.47;;;;;;;;;;5006796;28;20121;-71
2023/12/23 11:02:49;;;;;;;11.02;6.10;;;;;;;;;;5006813;28;20030;-71
2023/12/23 11:05:16;;;;;;;11.40;6.45;;;;;;;;;;4992337;28;20256;-70
2023/12/23 11:07:48;;;;;;;12.30;5.35;;;;;;;;;;4992109;28;20041;-70
2023/12/23 11:10:15;;;;;;;8.75;5.50;;;;;;;;;;4992117;28;20034;-70
2023/12/23 11:12:43;;;;;;;10.10;4.90;;;;;;;;;;4991494;28;20481;-71
2023/12/23 11:15:09;;;;;;;8.85;5.57;;;;;;;;;;4990401;28;20026;-71
2023/12/23 11:17:40;;;;;;;9.65;4.88;;;;;;;;;;4990007;28;20084;-70
2023/12/23 11:20:35;;;;;;;11.07;5.47;;;;;;;;;;4991480;28;20041;-71
2023/12/23 11:23:29;;;;;;;8.35;4.95;;;;;;;;;;4991802;28;20053;-73
2023/12/23 11:25:55;;;;;;;6.80;4.70;;;;;;;;;;4991624;28;20121;-72
2023/12/23 11:28:22;;;;;;;7.53;4.13;;;;;;;;;;4990060;28;20037;-71
2023/12/23 11:31:03;;;;;;;6.70;4.07;;;;;;;;;;4992486;28;20070;-71
2023/12/23 11:33:35;;;;;;;5.15;2.92;;;;;;;;;;4992232;28;20084;-72
2023/12/23 11:36:02;;;;;;;10.55;3.53;;;;;;;;;;5010234;28;20121;-72
2023/12/23 11:38:28;;;;;;;11.07;5.88;;;;;;;;;;5012879;28;20030;-71
2023/12/23 11:40:55;;;;;;;9.63;3.95;;;;;;;;;;4994489;28;20085;-72
2023/12/23 11:43:22;;;;;;;6.15;2.90;;;;;;;;;;4991354;28;20058;-73
2023/12/23 11:45:49;;;;;;;6.93;3.45;;;;;;;;;;4991565;28;20034;-72
2023/12/23 11:48:20;;;;;;;7.05;3.00;;;;;;;;;;4991710;28;20160;-71
2023/12/23 11:50:46;;;;;;;4.95;3.28;;;;;;;;;;4992185;28;20030;-71
2023/12/23 11:53:14;;;;;;;10.00;4.13;;;;;;;;;;4992744;28;20077;-73
2023/12/23 11:55:39;;;;;;;6.07;2.80;;;;;;;;;;4990440;28;20038;-72
2023/12/23 11:58:07;;;;;;;5.18;2.97;;;;;;;;;;4991680;28;20064;-73
2023/12/23 12:00:36;;;;;;;3.47;2.45;;;;;;;;;;4990358;28;20035;-72
2023/12/23 12:03:04;;;;;;;9.52;3.85;;;;;;;;;;5006363;28;20472;-73
2023/12/23 12:05:30;;;;;;;6.70;3.08;;;;;;;;;;4991412;28;20034;-72
2023/12/23 12:07:57;;;;;;;5.85;3.13;;;;;;;;;;4992105;28;20037;-73
2023/12/23 12:10:23;;;;;;;5.45;2.90;;;;;;;;;;4991460;28;20034;-72
2023/12/23 12:12:49;;;;;;;5.63;3.40;;;;;;;;;;5006375;28;20038;-72
2023/12/23 12:15:16;;;;;;;9.48;3.42;;;;;;;;;;4991075;28;20352;-71
2023/12/23 12:17:42;;;;;;;9.68;5.00;;;;;;;;;;4991819;28;20037;-72
2023/12/23 12:20:08;;;;;;;9.70;3.58;;;;;;;;;;4991364;28;20034;-72
2023/12/23 12:22:34;;;;;;;10.38;3.80;;;;;;;;;;4994345;28;20037;-73
2023/12/23 12:25:00;;;;;;;6.30;3.38;;;;;;;;;;5006053;28;20038;-71
2023/12/23 12:27:28;;;;;;;7.25;3.53;;;;;;;;;;4994318;28;20030;-71
2023/12/23 12:29:54;;;;;;;7.78;3.88;;;;;;;;;;4994768;28;20101;-72
2023/12/23 12:32:22;;;;;;;7.53;4.03;;;;;;;;;;4995176;28;20493;-72
2023/12/23 12:34:47;;;;;;;7.70;2.47;;;;;;;;;;4994763;28;20369;-71
2023/12/23 12:37:13;;;;;;;5.88;1.98;;;;;;;;;;4995261;28;20029;-72
2023/12/23 12:39:40;;;;;;;4.38;2.33;;;;;;;;;;4995096;28;20053;-72
2023/12/23 12:50:03;;;;;;;7.63;3.80;;;;;;;;;;5020094;28;20452;-75
2023/12/23 12:52:31;;;;;;;9.35;2.67;;;;;;;;;;4997427;28;20038;-73
2023/12/23 12:55:00;;;;;;;6.15;3.08;;;;;;;;;;4989407;28;20035;-76
2023/12/23 12:57:29;;;;;;;5.72;3.05;;;;;;;;;;4988259;28;20035;-76
2023/12/23 12:59:57;;;;;;;8.00;3.72;;;;;;;;;;4992642;28;20070;-76
2023/12/23 13:02:23;;;;;;;8.27;4.30;;;;;;;;;;4989496;28;20042;-75
2023/12/23 13:04:49;;;;;;;6.75;3.33;;;;;;;;;;4987239;28;20500;-75
2023/12/23 13:07:15;;;;;;;3.85;2.17;;;;;;;;;;4989137;28;20389;-76
2023/12/23 13:21:06;;;;;;;8.40;3.90;;;;;;;;;;5054186;28;20810;-74
2023/12/23 13:23:32;;;;;;;11.95;4.47;;;;;;;;;;5040319;28;20519;-76
2023/12/23 13:25:59;;;;;;;13.52;5.22;;;;;;;;;;4990844;28;20034;-74
2023/12/23 13:28:25;;;;;;;13.85;7.00;;;;;;;;;;5007898;28;20478;-74
2023/12/23 13:30:52;;;;;;;9.15;5.28;;;;;;;;;;5005927;28;20495;-73
2023/12/23 13:33:18;;;;;;;7.63;3.67;;;;;;;;;;5004091;28;20120;-73
2023/12/23 13:35:44;;;;;;;12.93;4.00;;;;;;;;;;5006180;28;20034;-73
2023/12/23 13:38:10;;;;;;;5.72;4.03;;;;;;;;;;5008152;28;20044;-74
2023/12/23 13:40:36;;;;;;;8.35;4.60;;;;;;;;;;5008518;28;20460;-74
2023/12/23 13:43:01;;;;;;;12.02;5.47;;;;;;;;;;4990577;28;20537;-75
2023/12/23 13:45:27;;;;;;;11.10;5.38;;;;;;;;;;5006841;28;20030;-73
2023/12/23 13:47:52;;;;;;;10.98;4.97;;;;;;;;;;5008356;28;20049;-76
2023/12/23 13:50:18;;;;;;;11.13;6.25;;;;;;;;;;4990805;28;20023;-74
2023/12/23 13:52:46;;;;;;;10.30;5.70;;;;;;;;;;5007865;28;20467;-75
2023/12/23 13:55:11;;;;;;;14.23;7.03;;;;;;;;;;5007601;28;20026;-76
2023/12/23 13:57:38;;;;;;;17.40;7.47;;;;;;;;;;5008263;28;20034;-76
2023/12/23 14:00:05;;;;;;;12.50;7.10;;;;;;;;;;5007978;28;20065;-74
2023/12/23 14:02:33;;;;;;;15.18;7.32;;;;;;;;;;5008596;28;20500;-75
2023/12/23 14:04:59;;;;;;;13.05;6.07;;;;;;;;;;4970323;28;20122;-75
2023/12/23 14:07:24;;;;;;;15.88;5.88;;;;;;;;;;5005845;28;20022;-75
2023/12/23 14:09:51;;;;;;;11.68;6.10;;;;;;;;;;5004014;28;20045;-75
2023/12/23 14:12:16;;;;;;;10.13;5.82;;;;;;;;;;5008101;28;20057;-75
2023/12/23 14:14:42;;;;;;;10.43;5.90;;;;;;;;;;5007065;28;20287;-75
2023/12/23 14:17:08;;;;;;;13.73;5.40;;;;;;;;;;5007832;28;20066;-75
2023/12/23 14:19:36;;;;;;;9.82;5.85;;;;;;;;;;5007635;28;20033;-74
2023/12/23 14:22:02;;;;;;;18.77;5.75;;;;;;;;;;4974454;28;20496;-75
2023/12/23 14:24:28;;;;;;;10.38;5.38;;;;;;;;;;5007808;28;20043;-76
2023/12/23 14:26:53;;;;;;;35.22;17.58;;;;;;;;;;5007816;28;20049;-74
2023/12/23 14:29:20;;;;;;;50.42;24.70;;;;;;;;;;5006301;28;20031;-75
2023/12/23 14:31:48;;;;;;;53.50;27.10;;;;;;;;;;4998791;28;20404;-74
2023/12/23 14:34:14;;;;;;;52.33;27.25;;;;;;;;;;4995156;28;20045;-74
2023/12/23 14:36:47;;;;;;;33.42;16.60;;;;;;;;;;4995337;28;20049;-74
2023/12/23 14:39:19;;;;;;;22.93;12.40;;;;;;;;;;4994475;28;20034;-74
2023/12/23 14:41:46;;;;;;;20.08;10.18;;;;;;;;;;4994762;28;20042;-73
2023/12/23 14:44:12;;;;;;;23.58;9.60;;;;;;;;;;4994781;28;20033;-73
2023/12/23 14:46:38;;;;;;;14.82;7.97;;;;;;;;;;4994832;28;20041;-74
2023/12/23 14:49:05;;;;;;;21.05;8.52;;;;;;;;;;4994424;28;20030;-74